sensor_id;sensor_type;location;lat;lon;timestamp;temperature;humidity
8778;DHT22;4425;50.872;4.712;2022-10-12T00:01:51;6.70;99.90
8778;DHT22;4425;50.872;4.712;2022-10-12T00:04:19;6.60;99.90
8778;DHT22;4425;50.872;4.712;2022-10-12T00:06:46;6.60;99.90
8778;DHT22;4425;50.872;4.712;2022-10-12T00:09:13;6.60;99.90
8778;DHT22;4425;50.872;4.712;2022-10-12T00:11:40;6.50;99.90
8778;DHT22;4425;50.872;4.712;2022-10-12T00:14:07;6.50;99.90
8778;DHT22;4425;50.872;4.712;2022-10-12T00:16:34;6.50;99.90
8778;DHT22;4425;50.872;4.712;2022-10-12T00:19:01;6.50;99.90
8778;DHT22;4425;50.872;4.712;2022-10-12T00:21:29;6.50;99.90
8778;DHT22;4425;50.872;4.712;2022-10-12T00:23:57;6.50;99.90
8778;DHT22;4425;50.872;4.712;2022-10-12T00:26:25;6.50;99.90
8778;DHT22;4425;50.872;4.712;2022-10-12T00:28:57;6.40;99.90
8778;DHT22;4425;50.872;4.712;2022-10-12T00:31:26;6.40;99.90
8778;DHT22;4425;50.872;4.712;2022-10-12T00:33:53;6.30;99.90
8778;DHT22;4425;50.872;4.712;2022-10-12T00:36:22;6.30;99.90
8778;DHT22;4425;50.872;4.712;2022-10-12T00:38:52;6.40;99.90
8778;DHT22;4425;50.872;4.712;2022-10-12T00:41:22;6.40;99.90
8778;DHT22;4425;50.872;4.712;2022-10-12T00:43:49;6.30;99.90
8778;DHT22;4425;50.872;4.712;2022-10-12T00:46:21;6.30;99.90
8778;DHT22;4425;50.872;4.712;2022-10-12T00:48:53;6.40;99.90
8778;DHT22;4425;50.872;4.712;2022-10-12T00:51:21;6.20;99.90
8778;DHT22;4425;50.872;4.712;2022-10-12T00:53:55;6.20;99.90
8778;DHT22;4425;50.872;4.712;2022-10-12T00:56:25;6.30;99.90
8778;DHT22;4425;50.872;4.712;2022-10-12T00:58:54;6.30;99.90
8778;DHT22;4425;50.872;4.712;2022-10-12T01:01:22;6.30;99.90
8778;DHT22;4425;50.872;4.712;2022-10-12T01:03:49;6.20;99.90
8778;DHT22;4425;50.872;4.712;2022-10-12T01:06:16;6.20;99.90
8778;DHT22;4425;50.872;4.712;2022-10-12T01:08:44;6.20;99.90
8778;DHT22;4425;50.872;4.712;2022-10-12T01:11:13;6.20;99.90
8778;DHT22;4425;50.872;4.712;2022-10-12T01:13:39;6.20;99.90
8778;DHT22;4425;50.872;4.712;2022-10-12T01:16:12;6.10;99.90
8778;DHT22;4425;50.872;4.712;2022-10-12T01:18:47;6.10;99.90
8778;DHT22;4425;50.872;4.712;2022-10-12T01:21:20;6.10;99.90
8778;DHT22;4425;50.872;4.712;2022-10-12T01:27:23;6.00;99.90
8778;DHT22;4425;50.872;4.712;2022-10-12T01:30:10;6.00;99.90
8778;DHT22;4425;50.872;4.712;2022-10-12T01:32:48;5.90;99.90
8778;DHT22;4425;50.872;4.712;2022-10-12T01:35:23;5.90;99.90
8778;DHT22;4425;50.872;4.712;2022-10-12T01:37:58;5.90;99.90
8778;DHT22;4425;50.872;4.712;2022-10-12T01:40:32;5.90;99.90
8778;DHT22;4425;50.872;4.712;2022-10-12T01:43:01;5.90;99.90
8778;DHT22;4425;50.872;4.712;2022-10-12T01:45:29;5.90;99.90
8778;DHT22;4425;50.872;4.712;2022-10-12T01:47:56;5.90;99.90
8778;DHT22;4425;50.872;4.712;2022-10-12T01:50:28;5.90;99.90
8778;DHT22;4425;50.872;4.712;2022-10-12T01:53:02;5.90;99.90
8778;DHT22;4425;50.872;4.712;2022-10-12T01:55:37;5.80;99.90
8778;DHT22;4425;50.872;4.712;2022-10-12T01:58:21;5.80;99.90
8778;DHT22;4425;50.872;4.712;2022-10-12T02:00:58;5.80;99.90
8778;DHT22;4425;50.872;4.712;2022-10-12T02:03:33;5.70;99.90
8778;DHT22;4425;50.872;4.712;2022-10-12T02:06:04;5.80;99.90
8778;DHT22;4425;50.872;4.712;2022-10-12T02:08:36;5.70;99.90
8778;DHT22;4425;50.872;4.712;2022-10-12T02:11:07;5.70;99.90
8778;DHT22;4425;50.872;4.712;2022-10-12T02:13:37;5.70;99.90
8778;DHT22;4425;50.872;4.712;2022-10-12T02:16:10;5.60;99.90
8778;DHT22;4425;50.872;4.712;2022-10-12T02:18:41;5.60;99.90
8778;DHT22;4425;50.872;4.712;2022-10-12T02:21:11;5.60;99.90
8778;DHT22;4425;50.872;4.712;2022-10-12T02:23:40;5.60;99.90
8778;DHT22;4425;50.872;4.712;2022-10-12T02:26:08;5.60;99.90
8778;DHT22;4425;50.872;4.712;2022-10-12T02:28:36;5.60;99.90
8778;DHT22;4425;50.872;4.712;2022-10-12T02:31:13;5.60;99.90
8778;DHT22;4425;50.872;4.712;2022-10-12T02:33:45;5.50;99.90
8778;DHT22;4425;50.872;4.712;2022-10-12T02:36:19;5.60;99.90
8778;DHT22;4425;50.872;4.712;2022-10-12T02:38:52;5.70;99.90
8778;DHT22;4425;50.872;4.712;2022-10-12T02:41:25;5.70;99.90
8778;DHT22;4425;50.872;4.712;2022-10-12T02:43:57;5.70;99.90
8778;DHT22;4425;50.872;4.712;2022-10-12T02:46:26;5.70;99.90
8778;DHT22;4425;50.872;4.712;2022-10-12T02:48:56;5.70;99.90
8778;DHT22;4425;50.872;4.712;2022-10-12T02:51:25;5.80;99.90
8778;DHT22;4425;50.872;4.712;2022-10-12T02:53:53;5.80;99.90
8778;DHT22;4425;50.872;4.712;2022-10-12T02:56:21;5.80;99.90
8778;DHT22;4425;50.872;4.712;2022-10-12T02:58:48;5.80;99.90
8778;DHT22;4425;50.872;4.712;2022-10-12T03:01:16;5.80;99.90
8778;DHT22;4425;50.872;4.712;2022-10-12T03:03:44;5.70;99.90
8778;DHT22;4425;50.872;4.712;2022-10-12T03:06:12;5.70;99.90
8778;DHT22;4425;50.872;4.712;2022-10-12T03:08:39;5.60;99.90
8778;DHT22;4425;50.872;4.712;2022-10-12T03:11:08;5.70;99.90
8778;DHT22;4425;50.872;4.712;2022-10-12T03:13:37;5.60;99.90
8778;DHT22;4425;50.872;4.712;2022-10-12T03:16:06;5.60;99.90
8778;DHT22;4425;50.872;4.712;2022-10-12T03:18:33;5.60;99.90
8778;DHT22;4425;50.872;4.712;2022-10-12T03:21:02;5.70;99.90
8778;DHT22;4425;50.872;4.712;2022-10-12T03:23:29;5.70;99.90
8778;DHT22;4425;50.872;4.712;2022-10-12T03:25:56;5.60;99.90
8778;DHT22;4425;50.872;4.712;2022-10-12T03:28:23;5.70;99.90
8778;DHT22;4425;50.872;4.712;2022-10-12T03:30:50;5.70;99.90
8778;DHT22;4425;50.872;4.712;2022-10-12T03:33:17;5.70;99.90
8778;DHT22;4425;50.872;4.712;2022-10-12T03:35:44;5.70;99.90
8778;DHT22;4425;50.872;4.712;2022-10-12T03:38:14;5.70;99.90
8778;DHT22;4425;50.872;4.712;2022-10-12T03:40:41;5.80;99.90
8778;DHT22;4425;50.872;4.712;2022-10-12T03:43:08;5.70;99.90
8778;DHT22;4425;50.872;4.712;2022-10-12T03:45:36;5.70;99.90
8778;DHT22;4425;50.872;4.712;2022-10-12T03:48:04;5.80;99.90
8778;DHT22;4425;50.872;4.712;2022-10-12T03:50:32;5.70;99.90
8778;DHT22;4425;50.872;4.712;2022-10-12T03:52:59;5.70;99.90
8778;DHT22;4425;50.872;4.712;2022-10-12T03:55:28;5.70;99.90
8778;DHT22;4425;50.872;4.712;2022-10-12T03:57:55;5.70;99.90
8778;DHT22;4425;50.872;4.712;2022-10-12T04:00:22;5.70;99.90
8778;DHT22;4425;50.872;4.712;2022-10-12T04:02:49;5.70;99.90
8778;DHT22;4425;50.872;4.712;2022-10-12T04:05:16;5.70;99.90
8778;DHT22;4425;50.872;4.712;2022-10-12T04:07:43;5.60;99.90
8778;DHT22;4425;50.872;4.712;2022-10-12T04:10:11;5.60;99.90
8778;DHT22;4425;50.872;4.712;2022-10-12T04:12:39;5.60;99.90
8778;DHT22;4425;50.872;4.712;2022-10-12T04:15:07;5.50;99.90
8778;DHT22;4425;50.872;4.712;2022-10-12T04:17:34;5.50;99.90
8778;DHT22;4425;50.872;4.712;2022-10-12T04:20:01;5.60;99.90
8778;DHT22;4425;50.872;4.712;2022-10-12T04:22:28;5.60;99.90
8778;DHT22;4425;50.872;4.712;2022-10-12T04:24:55;5.60;99.90
8778;DHT22;4425;50.872;4.712;2022-10-12T04:27:22;5.60;99.90
8778;DHT22;4425;50.872;4.712;2022-10-12T04:29:50;5.60;99.90
8778;DHT22;4425;50.872;4.712;2022-10-12T04:32:17;5.50;99.90
8778;DHT22;4425;50.872;4.712;2022-10-12T04:34:44;5.50;99.90
8778;DHT22;4425;50.872;4.712;2022-10-12T04:37:11;5.50;99.90
8778;DHT22;4425;50.872;4.712;2022-10-12T04:39:37;5.60;99.90
8778;DHT22;4425;50.872;4.712;2022-10-12T04:42:04;5.50;99.90
8778;DHT22;4425;50.872;4.712;2022-10-12T04:44:32;5.50;99.90
8778;DHT22;4425;50.872;4.712;2022-10-12T04:47:01;5.60;99.90
8778;DHT22;4425;50.872;4.712;2022-10-12T04:49:28;5.50;99.90
8778;DHT22;4425;50.872;4.712;2022-10-12T04:51:55;5.40;99.90
8778;DHT22;4425;50.872;4.712;2022-10-12T04:54:22;5.40;99.90
8778;DHT22;4425;50.872;4.712;2022-10-12T04:56:49;5.40;99.90
8778;DHT22;4425;50.872;4.712;2022-10-12T04:59:16;5.40;99.90
8778;DHT22;4425;50.872;4.712;2022-10-12T05:01:43;5.50;99.90
8778;DHT22;4425;50.872;4.712;2022-10-12T05:04:11;5.40;99.90
8778;DHT22;4425;50.872;4.712;2022-10-12T05:06:38;5.50;99.90
8778;DHT22;4425;50.872;4.712;2022-10-12T05:09:06;5.50;99.90
8778;DHT22;4425;50.872;4.712;2022-10-12T05:11:33;5.50;99.90
8778;DHT22;4425;50.872;4.712;2022-10-12T05:14:00;5.50;99.90
8778;DHT22;4425;50.872;4.712;2022-10-12T05:16:27;5.50;99.90
8778;DHT22;4425;50.872;4.712;2022-10-12T05:18:54;5.50;99.90
8778;DHT22;4425;50.872;4.712;2022-10-12T05:21:22;5.50;99.90
8778;DHT22;4425;50.872;4.712;2022-10-12T05:23:49;5.50;99.90
8778;DHT22;4425;50.872;4.712;2022-10-12T05:26:16;5.50;99.90
8778;DHT22;4425;50.872;4.712;2022-10-12T05:28:43;5.50;99.90
8778;DHT22;4425;50.872;4.712;2022-10-12T05:31:10;5.50;99.90
8778;DHT22;4425;50.872;4.712;2022-10-12T05:33:37;5.50;99.90
8778;DHT22;4425;50.872;4.712;2022-10-12T05:36:05;5.50;99.90
8778;DHT22;4425;50.872;4.712;2022-10-12T05:38:33;5.50;99.90
8778;DHT22;4425;50.872;4.712;2022-10-12T05:41:00;5.50;99.90
8778;DHT22;4425;50.872;4.712;2022-10-12T05:43:27;5.50;99.90
8778;DHT22;4425;50.872;4.712;2022-10-12T05:45:54;5.50;99.90
8778;DHT22;4425;50.872;4.712;2022-10-12T05:48:21;5.50;99.90
8778;DHT22;4425;50.872;4.712;2022-10-12T05:50:50;5.50;99.90
8778;DHT22;4425;50.872;4.712;2022-10-12T05:53:18;5.60;99.90
8778;DHT22;4425;50.872;4.712;2022-10-12T05:55:56;5.50;99.90
8778;DHT22;4425;50.872;4.712;2022-10-12T05:58:24;5.50;99.90
8778;DHT22;4425;50.872;4.712;2022-10-12T06:00:52;5.50;99.90
8778;DHT22;4425;50.872;4.712;2022-10-12T06:03:19;5.50;99.90
8778;DHT22;4425;50.872;4.712;2022-10-12T06:05:46;5.60;99.90
8778;DHT22;4425;50.872;4.712;2022-10-12T06:08:13;5.50;99.90
8778;DHT22;4425;50.872;4.712;2022-10-12T06:10:45;5.50;99.90
8778;DHT22;4425;50.872;4.712;2022-10-12T06:13:13;5.50;99.90
8778;DHT22;4425;50.872;4.712;2022-10-12T06:15:43;5.50;99.90
8778;DHT22;4425;50.872;4.712;2022-10-12T06:18:10;5.50;99.90
8778;DHT22;4425;50.872;4.712;2022-10-12T06:20:37;5.60;99.90
8778;DHT22;4425;50.872;4.712;2022-10-12T06:23:04;5.60;99.90
8778;DHT22;4425;50.872;4.712;2022-10-12T06:25:31;5.60;99.90
8778;DHT22;4425;50.872;4.712;2022-10-12T06:27:59;5.60;99.90
8778;DHT22;4425;50.872;4.712;2022-10-12T06:30:27;5.70;99.90
8778;DHT22;4425;50.872;4.712;2022-10-12T06:32:54;5.80;99.90
8778;DHT22;4425;50.872;4.712;2022-10-12T06:35:21;5.90;99.90
8778;DHT22;4425;50.872;4.712;2022-10-12T06:37:48;5.90;99.90
8778;DHT22;4425;50.872;4.712;2022-10-12T06:40:16;5.90;99.90
8778;DHT22;4425;50.872;4.712;2022-10-12T06:42:44;5.90;99.90
8778;DHT22;4425;50.872;4.712;2022-10-12T06:45:11;5.90;99.90
8778;DHT22;4425;50.872;4.712;2022-10-12T06:47:39;5.90;99.90
8778;DHT22;4425;50.872;4.712;2022-10-12T06:50:07;5.90;99.90
8778;DHT22;4425;50.872;4.712;2022-10-12T06:52:34;6.00;99.90
8778;DHT22;4425;50.872;4.712;2022-10-12T06:55:02;6.00;99.90
8778;DHT22;4425;50.872;4.712;2022-10-12T06:57:29;6.00;99.90
8778;DHT22;4425;50.872;4.712;2022-10-12T06:59:57;6.10;99.90
8778;DHT22;4425;50.872;4.712;2022-10-12T07:02:24;6.20;99.90
8778;DHT22;4425;50.872;4.712;2022-10-12T07:04:52;6.20;99.90
8778;DHT22;4425;50.872;4.712;2022-10-12T07:07:19;6.30;99.90
8778;DHT22;4425;50.872;4.712;2022-10-12T07:09:46;6.30;99.90
8778;DHT22;4425;50.872;4.712;2022-10-12T07:12:13;6.50;99.90
8778;DHT22;4425;50.872;4.712;2022-10-12T07:14:40;6.30;99.90
8778;DHT22;4425;50.872;4.712;2022-10-12T07:17:07;6.40;99.90
8778;DHT22;4425;50.872;4.712;2022-10-12T07:19:34;6.50;99.90
8778;DHT22;4425;50.872;4.712;2022-10-12T07:22:02;6.50;99.90
8778;DHT22;4425;50.872;4.712;2022-10-12T07:24:29;6.70;99.90
8778;DHT22;4425;50.872;4.712;2022-10-12T07:27:02;7.00;99.90
8778;DHT22;4425;50.872;4.712;2022-10-12T07:29:29;7.50;99.90
8778;DHT22;4425;50.872;4.712;2022-10-12T07:31:57;8.10;99.90
8778;DHT22;4425;50.872;4.712;2022-10-12T07:34:24;9.10;99.90
8778;DHT22;4425;50.872;4.712;2022-10-12T07:36:51;10.50;99.90
8778;DHT22;4425;50.872;4.712;2022-10-12T07:39:21;11.90;99.90
8778;DHT22;4425;50.872;4.712;2022-10-12T07:41:49;12.80;99.90
8778;DHT22;4425;50.872;4.712;2022-10-12T07:44:16;13.40;99.90
8778;DHT22;4425;50.872;4.712;2022-10-12T07:46:45;13.90;99.90
8778;DHT22;4425;50.872;4.712;2022-10-12T07:49:13;13.80;99.90
8778;DHT22;4425;50.872;4.712;2022-10-12T07:51:40;13.70;99.90
8778;DHT22;4425;50.872;4.712;2022-10-12T07:54:08;13.60;99.90
8778;DHT22;4425;50.872;4.712;2022-10-12T07:56:36;13.30;99.90
8778;DHT22;4425;50.872;4.712;2022-10-12T07:59:04;12.90;99.90
8778;DHT22;4425;50.872;4.712;2022-10-12T08:01:31;12.70;99.90
8778;DHT22;4425;50.872;4.712;2022-10-12T08:03:59;12.60;99.90
8778;DHT22;4425;50.872;4.712;2022-10-12T08:06:29;12.20;99.90
8778;DHT22;4425;50.872;4.712;2022-10-12T08:08:56;11.70;99.90
8778;DHT22;4425;50.872;4.712;2022-10-12T08:11:24;11.10;99.90
8778;DHT22;4425;50.872;4.712;2022-10-12T08:13:52;10.60;99.90
8778;DHT22;4425;50.872;4.712;2022-10-12T08:16:20;10.20;99.90
8778;DHT22;4425;50.872;4.712;2022-10-12T08:18:47;10.10;99.90
8778;DHT22;4425;50.872;4.712;2022-10-12T08:21:16;10.10;99.90
8778;DHT22;4425;50.872;4.712;2022-10-12T08:23:43;10.00;99.90
8778;DHT22;4425;50.872;4.712;2022-10-12T08:26:10;10.20;99.90
8778;DHT22;4425;50.872;4.712;2022-10-12T08:28:37;10.30;99.90
8778;DHT22;4425;50.872;4.712;2022-10-12T08:31:07;10.40;99.90
8778;DHT22;4425;50.872;4.712;2022-10-12T08:33:34;10.60;99.90
8778;DHT22;4425;50.872;4.712;2022-10-12T08:36:01;10.60;99.90
8778;DHT22;4425;50.872;4.712;2022-10-12T08:38:28;10.70;99.90
8778;DHT22;4425;50.872;4.712;2022-10-12T08:41:02;10.80;99.90
8778;DHT22;4425;50.872;4.712;2022-10-12T08:43:41;10.90;99.90
8778;DHT22;4425;50.872;4.712;2022-10-12T08:46:13;10.90;99.90
8778;DHT22;4425;50.872;4.712;2022-10-12T08:48:47;11.10;99.90
8778;DHT22;4425;50.872;4.712;2022-10-12T08:51:17;11.10;99.90
8778;DHT22;4425;50.872;4.712;2022-10-12T08:53:53;11.10;99.90
8778;DHT22;4425;50.872;4.712;2022-10-12T08:56:21;11.30;99.90
8778;DHT22;4425;50.872;4.712;2022-10-12T08:58:50;11.40;99.90
8778;DHT22;4425;50.872;4.712;2022-10-12T09:01:24;11.50;99.90
8778;DHT22;4425;50.872;4.712;2022-10-12T09:04:03;11.60;99.90
8778;DHT22;4425;50.872;4.712;2022-10-12T09:06:35;11.70;99.90
8778;DHT22;4425;50.872;4.712;2022-10-12T09:09:11;11.70;99.90
8778;DHT22;4425;50.872;4.712;2022-10-12T09:12:00;11.60;99.90
8778;DHT22;4425;50.872;4.712;2022-10-12T09:14:32;11.40;99.90
8778;DHT22;4425;50.872;4.712;2022-10-12T09:17:04;11.50;99.90
8778;DHT22;4425;50.872;4.712;2022-10-12T09:19:35;11.40;99.90
8778;DHT22;4425;50.872;4.712;2022-10-12T09:22:02;11.50;99.90
8778;DHT22;4425;50.872;4.712;2022-10-12T09:24:34;11.40;99.90
8778;DHT22;4425;50.872;4.712;2022-10-12T09:27:11;11.40;99.90
8778;DHT22;4425;50.872;4.712;2022-10-12T09:29:39;11.40;99.90
8778;DHT22;4425;50.872;4.712;2022-10-12T09:35:11;11.40;99.90
8778;DHT22;4425;50.872;4.712;2022-10-12T09:37:39;11.50;99.90
8778;DHT22;4425;50.872;4.712;2022-10-12T09:40:15;11.50;99.90
8778;DHT22;4425;50.872;4.712;2022-10-12T09:42:45;11.60;99.90
8778;DHT22;4425;50.872;4.712;2022-10-12T09:45:16;11.70;99.90
8778;DHT22;4425;50.872;4.712;2022-10-12T09:50:53;11.90;99.90
8778;DHT22;4425;50.872;4.712;2022-10-12T09:53:25;12.00;99.90
8778;DHT22;4425;50.872;4.712;2022-10-12T09:55:59;12.00;99.90
8778;DHT22;4425;50.872;4.712;2022-10-12T09:58:27;12.10;99.90
8778;DHT22;4425;50.872;4.712;2022-10-12T10:01:17;12.40;99.90
8778;DHT22;4425;50.872;4.712;2022-10-12T10:03:50;12.40;99.90
8778;DHT22;4425;50.872;4.712;2022-10-12T10:06:31;12.70;99.90
8778;DHT22;4425;50.872;4.712;2022-10-12T10:08:58;12.90;99.90
8778;DHT22;4425;50.872;4.712;2022-10-12T10:11:27;13.00;99.90
8778;DHT22;4425;50.872;4.712;2022-10-12T10:13:57;13.30;99.90
8778;DHT22;4425;50.872;4.712;2022-10-12T10:16:27;13.40;99.90
8778;DHT22;4425;50.872;4.712;2022-10-12T10:18:58;13.50;99.90
8778;DHT22;4425;50.872;4.712;2022-10-12T10:21:29;13.70;99.90
8778;DHT22;4425;50.872;4.712;2022-10-12T10:23:58;14.00;99.90
8778;DHT22;4425;50.872;4.712;2022-10-12T10:26:52;14.00;99.90
8778;DHT22;4425;50.872;4.712;2022-10-12T10:29:30;14.10;99.90
8778;DHT22;4425;50.872;4.712;2022-10-12T10:32:06;14.30;99.90
8778;DHT22;4425;50.872;4.712;2022-10-12T10:34:39;14.40;99.90
8778;DHT22;4425;50.872;4.712;2022-10-12T10:37:17;14.50;99.90
8778;DHT22;4425;50.872;4.712;2022-10-12T10:39:52;14.60;99.90
8778;DHT22;4425;50.872;4.712;2022-10-12T10:42:23;14.60;99.90
8778;DHT22;4425;50.872;4.712;2022-10-12T10:44:57;14.80;99.90
8778;DHT22;4425;50.872;4.712;2022-10-12T10:47:25;14.80;99.90
8778;DHT22;4425;50.872;4.712;2022-10-12T10:49:57;14.90;99.90
8778;DHT22;4425;50.872;4.712;2022-10-12T10:52:28;15.00;99.90
8778;DHT22;4425;50.872;4.712;2022-10-12T10:55:15;15.00;99.90
8778;DHT22;4425;50.872;4.712;2022-10-12T10:57:47;15.20;99.90
8778;DHT22;4425;50.872;4.712;2022-10-12T11:00:19;15.10;99.90
8778;DHT22;4425;50.872;4.712;2022-10-12T11:02:49;15.10;99.90
8778;DHT22;4425;50.872;4.712;2022-10-12T11:05:22;15.20;99.90
8778;DHT22;4425;50.872;4.712;2022-10-12T11:07:52;15.30;99.90
8778;DHT22;4425;50.872;4.712;2022-10-12T11:10:24;15.40;99.90
8778;DHT22;4425;50.872;4.712;2022-10-12T11:12:56;15.50;99.90
8778;DHT22;4425;50.872;4.712;2022-10-12T11:15:29;15.60;99.90
8778;DHT22;4425;50.872;4.712;2022-10-12T11:18:05;15.70;99.90
8778;DHT22;4425;50.872;4.712;2022-10-12T11:20:44;15.80;99.90
8778;DHT22;4425;50.872;4.712;2022-10-12T11:23:22;15.90;99.90
8778;DHT22;4425;50.872;4.712;2022-10-12T11:26:10;15.80;99.90
8778;DHT22;4425;50.872;4.712;2022-10-12T11:28:39;15.90;99.90
8778;DHT22;4425;50.872;4.712;2022-10-12T11:31:14;16.00;99.90
8778;DHT22;4425;50.872;4.712;2022-10-12T11:33:42;16.20;99.90
8778;DHT22;4425;50.872;4.712;2022-10-12T11:36:14;16.40;99.90
8778;DHT22;4425;50.872;4.712;2022-10-12T11:38:46;16.60;99.90
8778;DHT22;4425;50.872;4.712;2022-10-12T11:41:19;16.70;99.90
8778;DHT22;4425;50.872;4.712;2022-10-12T11:43:51;16.80;99.90
8778;DHT22;4425;50.872;4.712;2022-10-12T11:46:29;16.70;99.90
8778;DHT22;4425;50.872;4.712;2022-10-12T11:49:14;16.60;99.90
8778;DHT22;4425;50.872;4.712;2022-10-12T11:51:48;16.50;99.90
8778;DHT22;4425;50.872;4.712;2022-10-12T11:54:23;16.50;99.90
8778;DHT22;4425;50.872;4.712;2022-10-12T11:56:55;16.50;99.90
8778;DHT22;4425;50.872;4.712;2022-10-12T11:59:29;16.50;99.90
8778;DHT22;4425;50.872;4.712;2022-10-12T12:02:04;16.50;99.90
8778;DHT22;4425;50.872;4.712;2022-10-12T12:04:36;16.60;99.90
8778;DHT22;4425;50.872;4.712;2022-10-12T12:07:40;16.60;99.90
8778;DHT22;4425;50.872;4.712;2022-10-12T12:13:24;16.40;99.90
8778;DHT22;4425;50.872;4.712;2022-10-12T12:22:21;16.10;99.90
8778;DHT22;4425;50.872;4.712;2022-10-12T12:27:58;16.20;99.90
8778;DHT22;4425;50.872;4.712;2022-10-12T12:30:34;16.30;99.90
8778;DHT22;4425;50.872;4.712;2022-10-12T12:35:52;16.40;99.90
8778;DHT22;4425;50.872;4.712;2022-10-12T12:38:24;16.40;99.90
8778;DHT22;4425;50.872;4.712;2022-10-12T12:41:10;16.40;99.90
8778;DHT22;4425;50.872;4.712;2022-10-12T12:43:58;16.50;99.90
8778;DHT22;4425;50.872;4.712;2022-10-12T12:49:26;16.60;99.90
8778;DHT22;4425;50.872;4.712;2022-10-12T12:51:55;16.40;99.90
8778;DHT22;4425;50.872;4.712;2022-10-12T12:54:24;16.40;99.90
8778;DHT22;4425;50.872;4.712;2022-10-12T12:57:14;16.60;99.90
8778;DHT22;4425;50.872;4.712;2022-10-12T13:03:11;17.10;99.90
8778;DHT22;4425;50.872;4.712;2022-10-12T13:09:25;17.30;99.90
8778;DHT22;4425;50.872;4.712;2022-10-12T13:12:06;17.30;99.90
8778;DHT22;4425;50.872;4.712;2022-10-12T13:14:47;17.20;99.90
8778;DHT22;4425;50.872;4.712;2022-10-12T13:17:35;17.10;99.90
8778;DHT22;4425;50.872;4.712;2022-10-12T13:20:16;17.00;99.90
8778;DHT22;4425;50.872;4.712;2022-10-12T13:22:45;17.00;99.90
8778;DHT22;4425;50.872;4.712;2022-10-12T13:25:21;17.10;99.90
8778;DHT22;4425;50.872;4.712;2022-10-12T13:27:51;17.20;99.90
8778;DHT22;4425;50.872;4.712;2022-10-12T13:30:24;17.20;99.90
8778;DHT22;4425;50.872;4.712;2022-10-12T13:32:55;17.40;99.90
8778;DHT22;4425;50.872;4.712;2022-10-12T13:35:30;17.60;99.90
8778;DHT22;4425;50.872;4.712;2022-10-12T13:38:02;17.60;99.90
8778;DHT22;4425;50.872;4.712;2022-10-12T13:40:48;17.60;99.90
8778;DHT22;4425;50.872;4.712;2022-10-12T13:43:41;17.50;99.90
8778;DHT22;4425;50.872;4.712;2022-10-12T13:46:34;17.40;99.90
8778;DHT22;4425;50.872;4.712;2022-10-12T13:49:09;17.40;99.90
8778;DHT22;4425;50.872;4.712;2022-10-12T13:51:54;17.30;99.90
8778;DHT22;4425;50.872;4.712;2022-10-12T13:54:24;17.20;99.90
8778;DHT22;4425;50.872;4.712;2022-10-12T13:56:56;17.20;99.90
8778;DHT22;4425;50.872;4.712;2022-10-12T13:59:29;17.10;99.90
8778;DHT22;4425;50.872;4.712;2022-10-12T14:02:00;17.10;99.90
8778;DHT22;4425;50.872;4.712;2022-10-12T14:04:29;17.00;99.90
8778;DHT22;4425;50.872;4.712;2022-10-12T14:07:22;17.10;99.90
8778;DHT22;4425;50.872;4.712;2022-10-12T14:09:54;17.20;99.90
8778;DHT22;4425;50.872;4.712;2022-10-12T14:12:24;17.30;99.90
8778;DHT22;4425;50.872;4.712;2022-10-12T14:14:57;17.30;99.90
8778;DHT22;4425;50.872;4.712;2022-10-12T14:17:25;17.40;99.90
8778;DHT22;4425;50.872;4.712;2022-10-12T14:19:54;17.40;99.90
8778;DHT22;4425;50.872;4.712;2022-10-12T14:22:28;17.40;99.90
8778;DHT22;4425;50.872;4.712;2022-10-12T14:25:08;17.50;99.90
8778;DHT22;4425;50.872;4.712;2022-10-12T14:27:37;17.40;99.90
8778;DHT22;4425;50.872;4.712;2022-10-12T14:30:16;17.40;99.90
8778;DHT22;4425;50.872;4.712;2022-10-12T14:32:50;17.50;99.90
8778;DHT22;4425;50.872;4.712;2022-10-12T14:35:25;17.40;99.90
8778;DHT22;4425;50.872;4.712;2022-10-12T14:37:55;17.40;99.90
8778;DHT22;4425;50.872;4.712;2022-10-12T14:40:31;17.50;99.90
8778;DHT22;4425;50.872;4.712;2022-10-12T14:43:01;17.40;99.90
8778;DHT22;4425;50.872;4.712;2022-10-12T14:45:31;17.20;99.90
8778;DHT22;4425;50.872;4.712;2022-10-12T14:48:00;17.20;99.90
8778;DHT22;4425;50.872;4.712;2022-10-12T14:50:30;17.10;99.90
8778;DHT22;4425;50.872;4.712;2022-10-12T14:53:02;16.90;99.90
8778;DHT22;4425;50.872;4.712;2022-10-12T14:55:32;16.70;99.90
8778;DHT22;4425;50.872;4.712;2022-10-12T14:58:00;16.70;99.90
8778;DHT22;4425;50.872;4.712;2022-10-12T15:00:30;16.60;99.90
8778;DHT22;4425;50.872;4.712;2022-10-12T15:03:00;16.60;99.90
8778;DHT22;4425;50.872;4.712;2022-10-12T15:05:30;16.60;99.90
8778;DHT22;4425;50.872;4.712;2022-10-12T15:08:00;16.60;99.90
8778;DHT22;4425;50.872;4.712;2022-10-12T15:10:31;16.70;99.90
8778;DHT22;4425;50.872;4.712;2022-10-12T15:12:59;16.70;99.90
8778;DHT22;4425;50.872;4.712;2022-10-12T15:15:32;16.70;99.90
8778;DHT22;4425;50.872;4.712;2022-10-12T15:18:00;16.70;99.90
8778;DHT22;4425;50.872;4.712;2022-10-12T15:20:29;16.80;99.90
8778;DHT22;4425;50.872;4.712;2022-10-12T15:22:56;16.80;99.90
8778;DHT22;4425;50.872;4.712;2022-10-12T15:25:31;16.90;99.90
8778;DHT22;4425;50.872;4.712;2022-10-12T15:28:02;16.90;99.90
8778;DHT22;4425;50.872;4.712;2022-10-12T15:30:29;16.90;99.90
8778;DHT22;4425;50.872;4.712;2022-10-12T15:32:56;17.00;99.90
8778;DHT22;4425;50.872;4.712;2022-10-12T15:35:25;17.00;99.90
8778;DHT22;4425;50.872;4.712;2022-10-12T15:37:53;17.00;99.90
8778;DHT22;4425;50.872;4.712;2022-10-12T15:40:22;17.10;99.90
8778;DHT22;4425;50.872;4.712;2022-10-12T15:42:50;17.10;99.90
8778;DHT22;4425;50.872;4.712;2022-10-12T15:45:20;17.00;99.90
8778;DHT22;4425;50.872;4.712;2022-10-12T15:47:48;16.80;99.90
8778;DHT22;4425;50.872;4.712;2022-10-12T15:50:16;16.80;99.90
8778;DHT22;4425;50.872;4.712;2022-10-12T15:52:44;16.70;99.90
8778;DHT22;4425;50.872;4.712;2022-10-12T15:55:14;16.80;99.90
8778;DHT22;4425;50.872;4.712;2022-10-12T15:57:41;16.70;99.90
8778;DHT22;4425;50.872;4.712;2022-10-12T16:00:11;16.60;99.90
8778;DHT22;4425;50.872;4.712;2022-10-12T16:02:38;16.50;99.90
8778;DHT22;4425;50.872;4.712;2022-10-12T16:05:16;16.40;99.90
8778;DHT22;4425;50.872;4.712;2022-10-12T16:07:44;16.30;99.90
8778;DHT22;4425;50.872;4.712;2022-10-12T16:10:12;16.20;99.90
8778;DHT22;4425;50.872;4.712;2022-10-12T16:12:41;16.10;99.90
8778;DHT22;4425;50.872;4.712;2022-10-12T16:15:11;15.90;99.90
8778;DHT22;4425;50.872;4.712;2022-10-12T16:17:38;15.80;99.90
8778;DHT22;4425;50.872;4.712;2022-10-12T16:20:07;15.70;99.90
8778;DHT22;4425;50.872;4.712;2022-10-12T16:22:35;15.60;99.90
8778;DHT22;4425;50.872;4.712;2022-10-12T16:25:04;15.50;99.90
8778;DHT22;4425;50.872;4.712;2022-10-12T16:27:32;15.40;99.90
8778;DHT22;4425;50.872;4.712;2022-10-12T16:29:59;15.30;99.90
8778;DHT22;4425;50.872;4.712;2022-10-12T16:32:31;15.20;99.90
8778;DHT22;4425;50.872;4.712;2022-10-12T16:34:58;15.10;99.90
8778;DHT22;4425;50.872;4.712;2022-10-12T16:37:25;15.00;99.90
8778;DHT22;4425;50.872;4.712;2022-10-12T16:39:52;14.90;99.90
8778;DHT22;4425;50.872;4.712;2022-10-12T16:42:19;14.80;99.90
8778;DHT22;4425;50.872;4.712;2022-10-12T16:44:46;14.80;99.90
8778;DHT22;4425;50.872;4.712;2022-10-12T16:47:15;14.80;99.90
8778;DHT22;4425;50.872;4.712;2022-10-12T16:49:45;14.80;99.90
8778;DHT22;4425;50.872;4.712;2022-10-12T16:52:12;14.70;99.90
8778;DHT22;4425;50.872;4.712;2022-10-12T16:54:39;14.70;99.90
8778;DHT22;4425;50.872;4.712;2022-10-12T16:57:07;14.90;99.90
8778;DHT22;4425;50.872;4.712;2022-10-12T16:59:34;14.70;99.90
8778;DHT22;4425;50.872;4.712;2022-10-12T17:02:01;14.70;99.90
8778;DHT22;4425;50.872;4.712;2022-10-12T17:04:28;14.70;99.90
8778;DHT22;4425;50.872;4.712;2022-10-12T17:06:58;14.60;99.90